KBDL/BDL METAR and TAF weather

Enter ICAO airport designator
Station Type Date Time Source
KBDL METAR 2021/03/05 13:51 UTC NOAA

KBDL 051351Z 30016G25KT 10SM FEW110 BKN230 M04/M19 A2982 RMK AO2 PK WND 31030/1259 SLP101 T10391194


Station Type Date Time Source
KBDL Decoded METAR 2021/03/05 13:51 UTC NOAA

BRADLEY INTERNATIONAL AIRPORT , CT, United States (KBDL) 41-56N 072-41W 60M
Mar 05, 2021 - 08:51 AM EST / 2021.03.05 1351 UTC
Wind: from the WNW (300 degrees) at 18 MPH (16 KT) gusting to 29 MPH (25 KT):0
Visibility: 10 mile(s):0
Sky conditions: mostly cloudy
Temperature: 25.0 F (-3.9 C)
Windchill: 12 F (-11 C):1
Dew Point: -2.9 F (-19.4 C)
Relative Humidity: 28%
Pressure (altimeter): 29.82 in. Hg (1009 hPa)
ob: KBDL 051351Z 30016G25KT 10SM FEW110 BKN230 M04/M19 A2982 RMK AO2 PK WND 31030/1259 SLP101 T10391194
cycle: 14

Station Type Date Time Source
KBDL TAF 2021/03/05 12:39 UTC NOAA

TAF KBDL 051137Z 0512/0618 31014G25KT P6SM FEW100
FM060000 30010KT P6SM FEW200

Example: see airport list